ADDS METAR Data INFO
IDs: Format: Raw Decoded Include TAF

Data at: 1012 UTC 14 Dec 2017

KDLN 140953Z AUTO 22003KT 10SM CLR M06/M08 A3042 RMK AO2 SLP339 T10561078
KDLN 140853Z AUTO 19004KT 10SM CLR M04/M06 A3040 RMK AO2 SLP331 T10441061 51009
KDLN 140753Z AUTO 17003KT 10SM FEW024 M05/M07 A3040 RMK AO2 SLP336 T10501067
KDLN 140653Z AUTO 20003KT 10SM SCT025 M03/M06 A3038 RMK AO2 SLP321 T10331061 400331044
KDLN 140642Z AUTO 00000KT 10SM BKN024 BKN043 M03/M06 A3038 RMK AO2 T10331056
KDLN 140553Z AUTO 13004KT 10SM SCT027 OVC045 M03/M05 A3037 RMK AO2 SLP320 60000 T10281050 10006 21028 51004
KDLN 140501Z AUTO 17003KT 10SM SCT023 OVC047 M02/M04 A3037 RMK AO2 T10171039
KDLN 140453Z AUTO 00000KT 10SM BKN023 OVC048 M01/M04 A3037 RMK AO2 SLP311 T10111039
KDLN 140429Z AUTO 22003KT 10SM FEW018 BKN025 OVC050 M02/M04 A3037 RMK AO2 T10171039
KDLN 140400Z AUTO 00000KT 10SM SCT023 OVC042 M01/M03 A3036 RMK AO2 T10061033
KDLN 140353Z AUTO 05004KT 10SM BKN023 OVC042 M01/M03 A3036 RMK AO2 SLP307 T10061033
KDLN 140331Z AUTO 00000KT 10SM BKN023 OVC033 00/M03 A3035 RMK AO2 T00001028
KDLN 140318Z AUTO 00000KT 10SM FEW016 BKN033 OVC048 01/M02 A3034 RMK AO2 T00061022
KDLN 140308Z AUTO VRB03KT 10SM FEW012 BKN023 OVC049 00/M02 A3034 RMK AO2 T00001022
KDLN 140253Z AUTO 15006KT 10SM SCT012 OVC049 M01/M02 A3034 RMK AO2 SLP301 60000 T10061022 51024
KDLN 140153Z AUTO 00000KT 10SM SCT015 OVC039 00/M02 A3033 RMK AO2 SNB35E44 SLP290 P0000 T00001017
KDLN 140144Z AUTO 00000KT 9SM BKN015 OVC041 00/M01 A3032 RMK AO2 SNB35E44 P0000 T00001011
KDLN 140118Z AUTO 24004KT 9SM BKN014 BKN019 OVC060 00/M01 A3031 RMK AO2 T00001011
KDLN 140102Z AUTO 23004KT 10SM SCT010 BKN017 OVC055 00/M02 A3030 RMK AO2 T00001017
KDLN 140053Z AUTO 00000KT 10SM BKN010 OVC017 00/M02 A3030 RMK AO2 SNE00 CIG 008V013 SLP282 P0000 T00001017
KDLN 132353Z AUTO 00000KT 5SM -SN BR FEW007 BKN012 OVC024 00/M02 A3026 RMK AO2 SLP272 P0000 60005 T00001017 10011 21006 53015
KDLN 132341Z AUTO 00000KT 4SM -SN BR FEW007 BKN012 OVC047 00/M02 A3025 RMK AO2 P0000 T00001017
KDLN 132328Z AUTO 00000KT 6SM -SN BR BKN007 BKN011 OVC047 00/M01 A3025 RMK AO2 P0000 T00001011
KDLN 132319Z AUTO 04003KT 2 1/2SM -SN BR BKN007 BKN012 OVC047 00/M01 A3024 RMK AO2 P0000 T00001011
KDLN 132311Z AUTO 04003KT 2SM -SN BR BKN005 OVC009 00/M01 A3024 RMK AO2 P0000 T00001011
KDLN 132305Z AUTO 02004KT 1 3/4SM -SN BR OVC007 00/M01 A3024 RMK AO2 P0000 T00001011
KDLN 132300Z AUTO 02006KT 1SM -SN BR BKN005 OVC011 00/M01 A3024 RMK AO2 P0000 T00001011
KDLN 132253Z AUTO 03007KT 1/2SM -SN FG VV002 00/M01 A3024 RMK AO2 SLP261 P0001 T00001011
KDLN 132234Z AUTO 36006KT 3/4SM -SN BR OVC002 01/M01 A3022 RMK AO2 P0000 T00061011
KDLN 132212Z AUTO 02003KT 1 1/4SM -SN BR BKN002 BKN022 OVC034 01/M01 A3021 RMK AO2 P0000 T00061006
KDLN 132153Z AUTO 34003KT 2SM -SN BR BKN002 BKN026 OVC045 01/M01 A3022 RMK AO2 SLP251 P0000 T00061006
KDLN 132139Z AUTO 00000KT 2 1/2SM -SN BR SCT002 BKN025 OVC044 01/M01 A3021 RMK AO2 P0000 T00061006
KDLN 132117Z AUTO 06003KT 3SM -SN BR SCT005 BKN042 OVC050 01/M01 A3020 RMK AO2 P0000 T00111006
KDLN 132110Z AUTO 05003KT 5SM -SN BR BKN007 BKN010 OVC050 01/M01 A3020 RMK AO2 P0000 T00061006
KDLN 132101Z AUTO 04004KT 5SM -SN BR BKN005 OVC021 01/M01 A3020 RMK AO2 CIG 004V009 P0000 T00061006
KDLN 132053Z AUTO 05004KT 4SM -SN BR OVC004 01/M01 A3021 RMK AO2 SLP252 P0001 60004 T00061006 56003
KDLN 132021Z AUTO 04005KT 2 1/2SM -SN BR OVC003 00/M02 A3021 RMK AO2 P0000 T00001017
KDLN 132004Z AUTO 04005KT 1 1/4SM -SN BR OVC003 00/M02 A3021 RMK AO2 P0000 T00001017
KDLN 131953Z AUTO 03005KT 1SM -SN BR OVC002 M01/M02 A3021 RMK AO2 SLP256 P0002 T10061017
KDLN 131930Z AUTO 36005KT 1SM -SN BR OVC003 00/M02 A3022 RMK AO2 P0001 T00001017
KDLN 131919Z AUTO 36003KT 3/4SM -SN BR OVC004 00/M01 A3022 RMK AO2 P0001 T00001011
KDLN 131907Z AUTO 00000KT 1SM -SN BR OVC004 01/M01 A3022 RMK AO2 P0001 T00061006
KDLN 131900Z AUTO 21003KT 1SM -SN BR BKN005 OVC025 01/M01 A3022 RMK AO2 P0000 T00061006
KDLN 131853Z AUTO 21004KT 1 1/4SM -SN BR BKN005 OVC027 01/M01 A3022 RMK AO2 SLP250 P0001 T00061006
KDLN 131832Z AUTO 19005KT 1 1/4SM -SN BR FEW003 BKN019 OVC042 00/M01 A3023 RMK AO2 P0001 T00001011
KDLN 131816Z AUTO 20004KT 3/4SM -SN BR FEW004 OVC020 00/M01 A3024 RMK AO2 P0000 T00001011
KDLN 131810Z AUTO 21003KT 1 1/2SM -SN BR FEW004 BKN024 OVC070 00/M01 A3025 RMK AO2 P0000 T00001011
KDLN 131803Z AUTO 22003KT 1 1/4SM -SN BR FEW005 BKN030 OVC065 00/M01 A3025 RMK AO2 P0000 T00001011
KDLN 131755Z AUTO 21004KT 2 1/2SM -SN BR FEW005 BKN050 OVC065 M01/M02 A3025 RMK AO2 P0000 T10061017
KDLN 131753Z AUTO 23004KT 3SM -SN BR SCT037 SCT047 OVC065 M01/M02 A3025 RMK AO2 SLP264 P0001 60001 T10061017 10022 21006 50018
KDLN 131739Z AUTO 27004KT 2SM -SN BR SCT017 OVC065 M01/M02 A3026 RMK AO2 P0000 T10061017
KDLN 131734Z AUTO 29003KT 1 1/4SM -SN BR BKN017 OVC065 M01/M02 A3026 RMK AO2 P0000 T10061017
KDLN 131722Z AUTO 24008KT 3/4SM -SN BR VV017 01/M01 A3026 RMK AO2 P0000 T00061011
KDLN 131715Z AUTO 22011KT 1SM -SN BR VV018 01/M01 A3026 RMK AO2 P0000 T00061011
KDLN 131700Z AUTO 21013KT 1 3/4SM -SN BR OVC024 01/M01 A3027 RMK AO2 P0000 T00061011
KDLN 131653Z AUTO 21011KT 3SM -SN BR OVC028 01/M02 A3027 RMK AO2 SNB37 SLP272 P0000 T00061017
KDLN 131553Z AUTO 20006KT 10SM BKN060 OVC070 00/M06 A3023 RMK AO2 SLP256 T00001061
KDLN 131453Z AUTO 00000KT 10SM OVC085 00/M07 A3019 RMK AO2 SLP243 T00001067 56013
KDLN 131353Z AUTO 17005KT 10SM OVC085 02/M09 A3020 RMK AO2 SLP239 T00171089
KDLN 131253Z AUTO 20006KT 10SM OVC090 01/M07 A3023 RMK AO2 SLP258 T00061072
KDLN 131153Z AUTO 17004KT 10SM OVC090 00/M08 A3024 RMK AO2 SLP261 T00001078 10033 21011 57006
KDLN 131053Z AUTO 22003KT 10SM OVC095 01/M08 A3024 RMK AO2 SLP259 T00061078
KDLN 130953Z AUTO 21005KT 10SM OVC100 01/M08 A3025 RMK AO2 SLP262 T00111083
KDLN 130853Z AUTO 28003KT 10SM OVC100 01/M07 A3026 RMK AO2 SLP256 T00061072 58004
KDLN 130753Z AUTO 26004KT 10SM OVC100 01/M06 A3027 RMK AO2 SLP262 T00061061
KDLN 130653Z AUTO 16006KT 10SM OVC110 02/M07 A3026 RMK AO2 SLP261 T00221067 400561100
KDLN 130553Z AUTO 21007KT 10SM OVC110 03/M07 A3027 RMK AO2 SLP267 T00281072 10039 20000 58009
KDLN 130453Z AUTO 20008KT 10SM OVC120 01/M06 A3028 RMK AO2 SLP284 T00061061
KDLN 130353Z AUTO 25003KT 10SM OVC120 02/M06 A3030 RMK AO2 SLP292 T00171056
KDLN 130253Z AUTO 19006KT 10SM CLR 02/M06 A3030 RMK AO2 SLP304 T00221061 50002
KDLN 130153Z AUTO 19008KT 10SM CLR 03/M07 A3031 RMK AO2 SLP293 T00281072
KDLN 130053Z AUTO 21004KT 10SM CLR 00/M08 A3030 RMK AO2 SLP299 T00001083
KDLN 122353Z AUTO 00000KT 10SM CLR 01/M09 A3029 RMK AO2 SLP292 T00111089 10056 20000 55003
KDLN 122253Z AUTO 00000KT 10SM CLR 02/M07 A3029 RMK AO2 SLP299 T00171072